createdAt,value
2023-05-24T00:02:15.475Z,14.70
2023-05-24T00:04:42.579Z,14.80
2023-05-24T00:07:09.313Z,14.70
2023-05-24T00:09:36.160Z,14.70
2023-05-24T00:12:03.147Z,14.70
2023-05-24T00:14:30.226Z,14.70
2023-05-24T00:16:57.122Z,14.60
2023-05-24T00:19:24.070Z,14.60
2023-05-24T00:21:50.817Z,14.60
2023-05-24T00:24:17.742Z,14.60
2023-05-24T00:26:45.059Z,14.50
2023-05-24T00:29:12.029Z,14.40
2023-05-24T00:31:38.868Z,14.40
2023-05-24T00:34:06.218Z,14.40
2023-05-24T00:36:33.340Z,14.30
2023-05-24T00:39:00.154Z,14.30
2023-05-24T00:41:27.118Z,14.20
2023-05-24T00:43:54.038Z,14.30
2023-05-24T00:46:22.510Z,14.20
2023-05-24T00:48:50.806Z,14.20
2023-05-24T00:51:18.186Z,14.20
2023-05-24T00:53:49.173Z,14.10
2023-05-24T00:56:17.222Z,14.20
2023-05-24T00:58:44.743Z,14.10
2023-05-24T01:01:11.826Z,14.10
2023-05-24T01:03:39.687Z,14.10
2023-05-24T01:06:08.098Z,14.00
2023-05-24T01:08:48.225Z,14.00
2023-05-24T01:11:45.061Z,14.00
2023-05-24T01:14:27.210Z,14.00
2023-05-24T01:17:06.823Z,14.00
2023-05-24T01:20:02.423Z,13.90
2023-05-24T01:22:35.084Z,13.90
2023-05-24T01:25:17.104Z,13.90
2023-05-24T01:27:44.814Z,13.90
2023-05-24T01:30:12.282Z,13.90
2023-05-24T01:32:39.294Z,13.90
2023-05-24T01:35:06.212Z,13.80
2023-05-24T01:37:33.050Z,13.90
2023-05-24T01:40:00.564Z,13.90
2023-05-24T01:42:39.397Z,13.80
2023-05-24T01:45:18.236Z,13.80
2023-05-24T01:48:08.857Z,13.80
2023-05-24T01:50:42.917Z,13.70
2023-05-24T01:53:13.422Z,13.80
2023-05-24T01:55:40.765Z,13.70
2023-05-24T01:58:09.139Z,13.60
2023-05-24T02:00:36.421Z,13.70
2023-05-24T02:03:03.933Z,13.70
2023-05-24T02:05:33.199Z,13.70
2023-05-24T02:08:00.053Z,13.60
2023-05-24T02:10:26.798Z,13.60
2023-05-24T02:12:53.689Z,13.60
2023-05-24T02:15:20.797Z,13.50
2023-05-24T02:17:48.220Z,13.40
2023-05-24T02:20:17.411Z,13.40
2023-05-24T02:22:44.353Z,13.40
2023-05-24T02:25:11.557Z,13.40
2023-05-24T02:27:38.294Z,13.30
2023-05-24T02:30:06.784Z,13.30
2023-05-24T02:32:34.855Z,13.30
2023-05-24T02:35:02.082Z,13.30
2023-05-24T02:37:28.906Z,13.30
2023-05-24T02:39:55.834Z,13.30
2023-05-24T02:42:22.747Z,13.30
2023-05-24T02:44:52.512Z,13.30
2023-05-24T02:47:19.971Z,13.20
2023-05-24T02:49:46.923Z,13.20
2023-05-24T02:52:14.765Z,13.20
2023-05-24T02:54:41.716Z,13.20
2023-05-24T02:57:08.448Z,13.20
2023-05-24T02:59:35.308Z,13.10
2023-05-24T03:02:02.326Z,13.10
2023-05-24T03:04:29.254Z,13.20
2023-05-24T03:06:56.473Z,13.10
2023-05-24T03:09:23.193Z,13.10
2023-05-24T03:11:50.034Z,13.20
2023-05-24T03:14:17.574Z,13.20
2023-05-24T03:16:44.506Z,13.20
2023-05-24T03:19:11.286Z,13.30
2023-05-24T03:21:38.368Z,13.30
2023-05-24T03:24:05.717Z,13.30
2023-05-24T03:26:32.536Z,13.30
2023-05-24T03:28:59.217Z,13.30
2023-05-24T03:31:26.803Z,13.30
2023-05-24T03:33:53.790Z,13.30
2023-05-24T03:36:21.475Z,13.30
2023-05-24T03:38:48.325Z,13.20
2023-05-24T03:41:15.373Z,13.10
2023-05-24T03:43:42.179Z,13.10
2023-05-24T03:46:09.111Z,13.10
2023-05-24T03:48:36.102Z,13.10
2023-05-24T03:51:02.875Z,13.10
2023-05-24T03:53:29.829Z,13.00
2023-05-24T03:55:56.721Z,12.90
2023-05-24T03:58:23.479Z,12.90
2023-05-24T04:00:50.323Z,12.90
2023-05-24T04:03:20.174Z,12.90
2023-05-24T04:05:47.530Z,12.90
2023-05-24T04:08:15.234Z,12.80
2023-05-24T04:10:42.624Z,12.90
2023-05-24T04:13:09.664Z,12.90
2023-05-24T04:15:38.092Z,12.90
2023-05-24T04:18:05.442Z,12.90
2023-05-24T04:20:32.654Z,12.90
2023-05-24T04:22:59.452Z,12.90
2023-05-24T04:25:27.029Z,12.90
2023-05-24T04:27:53.965Z,13.00
2023-05-24T04:30:21.587Z,13.10
2023-05-24T04:32:48.703Z,13.10
2023-05-24T04:35:16.870Z,13.10
2023-05-24T04:37:44.594Z,13.10
2023-05-24T04:40:12.094Z,13.10
2023-05-24T04:42:39.322Z,13.10
2023-05-24T04:45:07.135Z,13.00
2023-05-24T04:47:34.266Z,13.00
2023-05-24T04:50:01.110Z,13.00
2023-05-24T04:52:27.941Z,13.00
2023-05-24T04:54:55.803Z,13.00
2023-05-24T04:57:22.720Z,13.00
2023-05-24T04:59:49.625Z,13.00
2023-05-24T05:02:16.425Z,13.10
2023-05-24T05:04:43.262Z,13.10
2023-05-24T05:07:10.221Z,13.10
2023-05-24T05:09:37.038Z,13.20
2023-05-24T05:12:03.909Z,13.20
2023-05-24T05:14:30.649Z,13.20
2023-05-24T05:16:57.581Z,13.20
2023-05-24T05:19:24.586Z,13.20
2023-05-24T05:21:51.737Z,13.20
2023-05-24T05:24:19.204Z,13.20
2023-05-24T05:26:45.957Z,13.30
2023-05-24T05:29:12.806Z,13.30
2023-05-24T05:31:39.749Z,13.30
2023-05-24T05:34:09.858Z,13.30
2023-05-24T05:36:40.941Z,13.30
2023-05-24T05:39:11.544Z,13.40
2023-05-24T05:41:46.497Z,13.50
2023-05-24T05:44:14.188Z,13.50
2023-05-24T05:46:43.954Z,13.40
2023-05-24T05:49:11.054Z,13.50
2023-05-24T05:51:38.824Z,13.50
2023-05-24T05:54:06.100Z,13.60
2023-05-24T05:56:32.999Z,13.60
2023-05-24T05:58:59.700Z,13.60
2023-05-24T06:01:26.524Z,13.70
2023-05-24T06:03:53.406Z,13.80
2023-05-24T06:06:20.312Z,13.80
2023-05-24T06:08:46.998Z,13.90
2023-05-24T06:11:13.747Z,14.00
2023-05-24T06:13:40.385Z,14.00
2023-05-24T06:16:08.888Z,14.10
2023-05-24T06:18:36.803Z,14.10
2023-05-24T06:21:03.860Z,14.10
2023-05-24T06:23:30.829Z,14.10
2023-05-24T06:25:57.621Z,14.20
2023-05-24T06:28:24.680Z,14.20
2023-05-24T06:30:51.893Z,14.30
2023-05-24T06:33:19.193Z,14.30
2023-05-24T06:35:46.162Z,14.30
2023-05-24T06:38:12.910Z,14.20
2023-05-24T06:40:39.946Z,14.30
2023-05-24T06:43:06.867Z,14.40
2023-05-24T06:45:33.612Z,14.40
2023-05-24T06:48:00.465Z,14.40
2023-05-24T06:50:27.431Z,14.40
2023-05-24T06:52:54.075Z,14.50
2023-05-24T06:55:21.014Z,14.50
2023-05-24T06:57:47.653Z,14.50
2023-05-24T07:00:14.816Z,14.40
2023-05-24T07:02:42.236Z,14.40
2023-05-24T07:05:12.248Z,14.40
2023-05-24T07:07:40.255Z,14.50
2023-05-24T07:10:13.524Z,14.60
2023-05-24T07:12:40.849Z,14.60
2023-05-24T07:15:08.863Z,14.70
2023-05-24T07:17:36.015Z,14.70
2023-05-24T07:20:03.210Z,14.80
2023-05-24T07:22:31.688Z,14.70
2023-05-24T07:24:58.559Z,14.60
2023-05-24T07:27:25.368Z,14.60
2023-05-24T07:29:52.344Z,14.50
2023-05-24T07:32:19.099Z,14.50
2023-05-24T07:34:45.927Z,14.40
2023-05-24T07:37:12.576Z,14.40
2023-05-24T07:39:39.241Z,14.30
2023-05-24T07:42:06.462Z,14.30
2023-05-24T07:44:33.356Z,14.20
2023-05-24T07:47:01.189Z,14.10
2023-05-24T07:49:28.242Z,14.10
2023-05-24T07:51:58.297Z,14.00
2023-05-24T07:54:25.461Z,14.00
2023-05-24T07:56:52.543Z,14.00
2023-05-24T07:59:19.326Z,14.00
2023-05-24T08:01:47.865Z,14.10
2023-05-24T08:04:14.759Z,14.10
2023-05-24T08:06:41.915Z,14.10
2023-05-24T08:09:08.898Z,14.10
2023-05-24T08:11:35.590Z,14.20
2023-05-24T08:14:02.295Z,14.30
2023-05-24T08:16:29.103Z,14.30
2023-05-24T08:18:56.045Z,14.40
2023-05-24T08:21:23.590Z,14.40
2023-05-24T08:23:51.252Z,14.50
2023-05-24T08:26:19.546Z,14.50
2023-05-24T08:28:46.432Z,14.60
2023-05-24T08:31:13.307Z,14.60
2023-05-24T08:33:41.072Z,14.60
2023-05-24T08:36:07.825Z,14.70
2023-05-24T08:38:34.501Z,14.70
2023-05-24T08:41:05.771Z,14.70
2023-05-24T08:43:33.229Z,14.70
2023-05-24T08:46:02.644Z,14.80
2023-05-24T08:48:29.685Z,14.90
2023-05-24T08:50:57.959Z,15.00
2023-05-24T08:53:25.386Z,15.10
2023-05-24T08:55:53.454Z,15.20
2023-05-24T08:58:20.882Z,15.20
2023-05-24T09:00:47.656Z,15.20
2023-05-24T09:03:14.636Z,15.20
2023-05-24T09:05:42.067Z,15.20
2023-05-24T09:08:10.196Z,15.30
2023-05-24T09:10:49.303Z,15.20
2023-05-24T09:13:24.911Z,15.30
2023-05-24T09:15:52.013Z,15.40
2023-05-24T09:18:18.882Z,15.40
2023-05-24T09:20:46.106Z,15.50
2023-05-24T09:23:14.698Z,15.60
2023-05-24T09:25:46.141Z,15.70
2023-05-24T09:28:18.110Z,15.80
2023-05-24T09:30:46.331Z,16.00
2023-05-24T09:33:13.596Z,16.10
2023-05-24T09:35:44.463Z,16.30
2023-05-24T09:38:18.981Z,16.30
2023-05-24T09:40:46.760Z,16.40
2023-05-24T09:43:13.733Z,16.70
2023-05-24T09:45:46.832Z,16.80
2023-05-24T09:48:15.326Z,17.00
2023-05-24T09:50:43.050Z,17.20
2023-05-24T09:53:10.076Z,17.40
2023-05-24T09:55:37.602Z,17.40
2023-05-24T09:58:09.106Z,17.50
2023-05-24T10:00:40.002Z,17.50
2023-05-24T10:03:12.003Z,17.50
2023-05-24T10:05:41.865Z,17.40
2023-05-24T10:08:09.988Z,17.40
2023-05-24T10:10:36.663Z,17.30
2023-05-24T10:13:03.712Z,17.20
2023-05-24T10:15:30.919Z,17.10
2023-05-24T10:17:58.804Z,17.00
2023-05-24T10:20:25.595Z,16.90
2023-05-24T10:22:55.605Z,17.00
2023-05-24T10:25:25.886Z,17.10
2023-05-24T10:27:57.589Z,17.30
2023-05-24T10:30:34.514Z,17.60
2023-05-24T10:33:02.476Z,18.00
2023-05-24T10:35:30.575Z,18.30
2023-05-24T10:37:57.489Z,18.60
2023-05-24T10:40:27.199Z,18.90
2023-05-24T10:42:56.780Z,19.10
2023-05-24T10:45:35.388Z,19.30
2023-05-24T10:48:14.589Z,19.40
2023-05-24T10:50:42.796Z,19.60
2023-05-24T10:53:16.462Z,19.80
2023-05-24T10:55:59.639Z,19.90
2023-05-24T10:58:58.609Z,19.90
2023-05-24T11:01:30.341Z,20.00
2023-05-24T11:04:11.387Z,20.30
2023-05-24T11:06:55.682Z,20.50
2023-05-24T11:09:25.126Z,21.00
2023-05-24T11:11:56.350Z,21.20
2023-05-24T11:14:25.233Z,21.20
2023-05-24T11:16:52.397Z,21.20
2023-05-24T11:19:34.470Z,21.20
2023-05-24T11:22:04.271Z,21.20
2023-05-24T11:24:31.528Z,21.20
2023-05-24T11:26:59.380Z,21.20
2023-05-24T11:29:26.408Z,21.10
2023-05-24T11:31:55.295Z,21.00
2023-05-24T11:34:22.264Z,20.90
2023-05-24T11:36:49.414Z,20.80
2023-05-24T11:39:16.803Z,20.80
2023-05-24T11:41:44.298Z,20.80
2023-05-24T11:44:12.023Z,20.70
2023-05-24T11:46:39.807Z,20.70
2023-05-24T11:49:06.990Z,20.70
2023-05-24T11:51:35.814Z,20.80
2023-05-24T11:54:02.466Z,20.90
2023-05-24T11:56:33.195Z,21.10
2023-05-24T11:59:09.801Z,21.40
2023-05-24T12:01:38.294Z,21.60
2023-05-24T12:04:07.276Z,21.70
2023-05-24T12:06:38.459Z,21.60
2023-05-24T12:09:08.669Z,21.70
2023-05-24T12:11:39.992Z,22.00
2023-05-24T12:14:08.362Z,22.30
2023-05-24T12:16:36.876Z,22.80
2023-05-24T12:19:07.386Z,23.30
2023-05-24T12:21:44.060Z,23.60
2023-05-24T12:24:12.111Z,23.90
2023-05-24T12:26:47.220Z,24.20
2023-05-24T12:29:14.616Z,24.20
2023-05-24T12:31:42.838Z,24.30
2023-05-24T12:34:16.646Z,24.40
2023-05-24T12:36:44.001Z,24.30
2023-05-24T12:39:42.810Z,24.30
2023-05-24T12:42:12.009Z,24.40
2023-05-24T12:44:39.369Z,24.70
2023-05-24T12:47:08.424Z,25.10
2023-05-24T12:49:35.831Z,25.30
2023-05-24T12:52:02.512Z,25.50
2023-05-24T12:54:29.653Z,25.70
2023-05-24T12:56:57.752Z,26.00
2023-05-24T12:59:26.210Z,26.10
2023-05-24T13:01:53.263Z,26.30
2023-05-24T13:04:23.093Z,26.40
2023-05-24T13:06:49.986Z,26.30
2023-05-24T13:09:21.995Z,26.20
2023-05-24T13:11:48.991Z,26.10
2023-05-24T13:14:16.774Z,25.90
2023-05-24T13:16:44.304Z,25.70
2023-05-24T13:19:11.887Z,25.40
2023-05-24T13:21:39.180Z,25.30
2023-05-24T13:24:06.787Z,25.40
2023-05-24T13:26:38.145Z,25.70
2023-05-24T13:31:37.933Z,26.50
2023-05-24T13:34:05.272Z,26.70
2023-05-24T13:36:32.289Z,26.80
2023-05-24T13:39:14.086Z,27.00
2023-05-24T13:41:43.440Z,27.00
2023-05-24T13:44:10.807Z,27.10
2023-05-24T13:46:38.293Z,27.10
2023-05-24T13:49:05.763Z,27.30
2023-05-24T13:51:33.101Z,27.30
2023-05-24T13:53:59.988Z,27.20
2023-05-24T13:56:32.839Z,27.10
2023-05-24T13:59:04.569Z,27.00
2023-05-24T14:01:32.105Z,26.70
2023-05-24T14:04:01.620Z,26.50
2023-05-24T14:06:28.458Z,26.20
2023-05-24T14:08:55.170Z,26.10
2023-05-24T14:11:22.311Z,25.80
2023-05-24T14:16:19.452Z,25.40
2023-05-24T14:18:49.139Z,25.50
2023-05-24T14:21:16.408Z,25.70
2023-05-24T14:23:43.130Z,25.90
2023-05-24T14:26:09.790Z,25.90
2023-05-24T14:28:36.662Z,26.00
2023-05-24T14:31:03.531Z,26.30
2023-05-24T14:33:30.437Z,26.40
2023-05-24T14:35:57.650Z,26.80
2023-05-24T14:38:25.108Z,27.10
2023-05-24T14:40:52.038Z,27.40
2023-05-24T14:43:18.770Z,27.80
2023-05-24T14:45:45.651Z,28.00
2023-05-24T14:48:12.951Z,28.20
2023-05-24T14:50:40.466Z,28.30
2023-05-24T14:53:09.786Z,28.40
2023-05-24T14:55:37.524Z,28.50
2023-05-24T14:58:09.435Z,28.60
2023-05-24T15:00:36.876Z,28.60
2023-05-24T15:03:05.942Z,28.50
2023-05-24T15:05:33.145Z,28.40
2023-05-24T15:07:59.886Z,28.30
2023-05-24T15:10:26.803Z,28.00
2023-05-24T15:12:53.580Z,27.70
2023-05-24T15:15:22.588Z,27.60
2023-05-24T15:17:49.643Z,27.60
2023-05-24T15:20:16.657Z,27.50
2023-05-24T15:22:43.575Z,27.70
2023-05-24T15:25:11.429Z,27.80
2023-05-24T15:27:38.200Z,27.90
2023-05-24T15:30:05.616Z,28.00
2023-05-24T15:32:32.307Z,28.10
2023-05-24T15:35:00.422Z,28.10
2023-05-24T15:37:27.436Z,28.10
2023-05-24T15:39:54.496Z,28.10
2023-05-24T15:42:21.862Z,28.00
2023-05-24T15:44:48.571Z,27.90
2023-05-24T15:47:15.429Z,27.80
2023-05-24T15:49:42.282Z,27.70
2023-05-24T15:52:10.049Z,27.60
2023-05-24T15:54:36.942Z,27.50
2023-05-24T15:57:03.857Z,27.60
2023-05-24T15:59:30.658Z,27.40
2023-05-24T16:01:57.417Z,27.20
2023-05-24T16:04:24.103Z,27.10
2023-05-24T16:06:50.930Z,27.00
2023-05-24T16:09:17.775Z,27.00
2023-05-24T16:11:44.605Z,27.00
2023-05-24T16:14:11.481Z,27.00
2023-05-24T16:16:38.368Z,26.90
2023-05-24T16:19:05.259Z,26.80
2023-05-24T16:21:32.928Z,26.60
2023-05-24T16:24:01.845Z,26.60
2023-05-24T16:26:30.912Z,26.40
2023-05-24T16:28:58.046Z,26.30
2023-05-24T16:31:25.241Z,26.20
2023-05-24T16:33:52.062Z,26.20
2023-05-24T16:36:19.101Z,26.00
2023-05-24T16:38:45.851Z,25.80
2023-05-24T16:41:12.631Z,25.70
2023-05-24T16:43:39.462Z,25.50
2023-05-24T16:46:06.534Z,25.30
2023-05-24T16:48:33.410Z,25.20
2023-05-24T16:51:00.880Z,25.00
2023-05-24T16:53:27.895Z,24.80
2023-05-24T16:55:55.910Z,24.60
2023-05-24T16:58:31.121Z,24.40
2023-05-24T17:00:58.867Z,24.30
2023-05-24T17:03:29.788Z,24.10
2023-05-24T17:06:02.016Z,23.90
2023-05-24T17:08:29.980Z,23.80
2023-05-24T17:10:57.153Z,23.60
2023-05-24T17:13:23.959Z,23.60
2023-05-24T17:15:53.852Z,23.50
2023-05-24T17:18:27.872Z,23.40
2023-05-24T17:21:00.031Z,23.30
2023-05-24T17:23:28.246Z,23.10
2023-05-24T17:25:58.470Z,22.90
2023-05-24T17:28:29.161Z,22.70
2023-05-24T17:30:57.001Z,22.50
2023-05-24T17:33:24.937Z,22.40
2023-05-24T17:35:52.211Z,22.20
2023-05-24T17:38:19.202Z,22.10
2023-05-24T17:40:46.709Z,21.90
2023-05-24T17:43:13.650Z,21.80
2023-05-24T17:45:40.812Z,21.80
2023-05-24T17:48:08.113Z,21.60
2023-05-24T17:50:34.862Z,21.40
2023-05-24T17:53:01.644Z,21.30
2023-05-24T17:55:28.335Z,21.20
2023-05-24T17:57:55.095Z,21.20
2023-05-24T18:00:22.054Z,21.00
2023-05-24T18:02:48.958Z,21.00
2023-05-24T18:05:16.580Z,20.90
2023-05-24T18:07:43.525Z,20.80
2023-05-24T18:10:10.758Z,20.70
2023-05-24T18:12:37.704Z,20.60
2023-05-24T18:15:05.311Z,20.40
2023-05-24T18:17:32.139Z,20.30
2023-05-24T18:19:58.925Z,20.20
2023-05-24T18:22:25.853Z,20.20
2023-05-24T18:24:52.496Z,20.00
2023-05-24T18:27:19.225Z,19.90
2023-05-24T18:29:45.983Z,19.80
2023-05-24T18:32:12.645Z,19.70
2023-05-24T18:34:39.325Z,19.70
2023-05-24T18:37:06.052Z,19.60
2023-05-24T18:39:32.732Z,19.50
2023-05-24T18:41:59.371Z,19.40
2023-05-24T18:44:26.060Z,19.30
2023-05-24T18:46:55.619Z,19.30
2023-05-24T18:49:23.439Z,19.20
2023-05-24T18:51:50.143Z,19.10
2023-05-24T18:54:16.938Z,18.90
2023-05-24T18:56:43.943Z,18.90
2023-05-24T18:59:12.361Z,18.80
2023-05-24T19:01:39.373Z,18.70
2023-05-24T19:04:06.183Z,18.60
2023-05-24T19:06:33.063Z,18.50
2023-05-24T19:09:02.712Z,18.40
2023-05-24T19:11:29.450Z,18.40
2023-05-24T19:13:56.279Z,18.30
2023-05-24T19:16:23.210Z,18.20
2023-05-24T19:18:49.908Z,18.10
2023-05-24T19:21:16.715Z,18.10
2023-05-24T19:23:43.520Z,18.00
2023-05-24T19:26:11.161Z,17.90
2023-05-24T19:28:40.401Z,17.90
2023-05-24T19:31:07.362Z,17.80
2023-05-24T19:33:35.085Z,17.70
2023-05-24T19:36:09.938Z,17.70
2023-05-24T19:38:37.782Z,17.60
2023-05-24T19:41:04.637Z,17.50
2023-05-24T19:43:31.465Z,17.50
2023-05-24T19:45:58.552Z,17.40
2023-05-24T19:48:25.476Z,17.30
2023-05-24T19:50:52.297Z,17.10
2023-05-24T19:53:19.144Z,17.00
2023-05-24T19:55:46.325Z,17.00
2023-05-24T19:58:13.124Z,17.00
2023-05-24T20:00:39.888Z,17.00
2023-05-24T20:03:06.834Z,17.00
2023-05-24T20:05:33.646Z,16.90
2023-05-24T20:08:00.465Z,17.00
2023-05-24T20:10:29.827Z,17.00
2023-05-24T20:12:56.748Z,17.00
2023-05-24T20:15:29.786Z,17.10
2023-05-24T20:17:56.718Z,17.00
2023-05-24T20:20:23.533Z,16.90
2023-05-24T20:22:50.410Z,16.80
2023-05-24T20:25:19.188Z,16.60
2023-05-24T20:27:46.127Z,16.50
2023-05-24T20:30:14.599Z,16.40
2023-05-24T20:32:41.567Z,16.30
2023-05-24T20:35:09.145Z,16.20
2023-05-24T20:37:36.428Z,16.20
2023-05-24T20:40:05.681Z,16.00
2023-05-24T20:42:32.388Z,16.10
2023-05-24T20:44:59.172Z,16.20
2023-05-24T20:47:27.545Z,16.20
2023-05-24T20:49:56.217Z,16.30
2023-05-24T20:52:23.101Z,16.20
2023-05-24T20:54:50.088Z,16.30
2023-05-24T20:57:17.184Z,16.30
2023-05-24T20:59:44.217Z,16.30
2023-05-24T21:02:11.308Z,16.30
2023-05-24T21:04:38.049Z,16.20
2023-05-24T21:07:05.147Z,16.00
2023-05-24T21:09:31.955Z,16.00
2023-05-24T21:11:58.797Z,15.80
2023-05-24T21:14:27.007Z,15.80
2023-05-24T21:16:54.191Z,15.70
2023-05-24T21:19:21.217Z,15.60
2023-05-24T21:21:47.914Z,15.50
2023-05-24T21:24:15.941Z,15.50
2023-05-24T21:26:42.589Z,15.40
2023-05-24T21:29:13.141Z,15.30
2023-05-24T21:31:41.271Z,15.30
2023-05-24T21:34:08.019Z,15.20
2023-05-24T21:36:34.728Z,15.10
2023-05-24T21:39:03.880Z,15.00
2023-05-24T21:41:30.515Z,14.90
2023-05-24T21:43:57.135Z,14.80
2023-05-24T21:46:23.811Z,14.70
2023-05-24T21:48:50.494Z,14.60
2023-05-24T21:51:17.222Z,14.50
2023-05-24T21:53:43.857Z,14.40
2023-05-24T21:56:10.585Z,14.30
2023-05-24T21:58:38.064Z,14.30
2023-05-24T22:01:04.855Z,14.20
2023-05-24T22:03:31.603Z,14.20
2023-05-24T22:05:58.314Z,14.20
2023-05-24T22:08:24.978Z,14.10
2023-05-24T22:10:51.714Z,14.10
2023-05-24T22:13:18.463Z,14.10
2023-05-24T22:15:45.290Z,14.00
2023-05-24T22:18:12.848Z,13.90
2023-05-24T22:20:39.617Z,14.00
2023-05-24T22:23:06.694Z,14.10
2023-05-24T22:25:33.396Z,14.10
2023-05-24T22:28:00.118Z,14.00
2023-05-24T22:30:27.040Z,13.90
2023-05-24T22:32:53.799Z,13.90
2023-05-24T22:35:20.597Z,13.80
2023-05-24T22:37:47.237Z,13.80
2023-05-24T22:40:14.168Z,13.70
2023-05-24T22:42:41.014Z,13.60
2023-05-24T22:45:08.473Z,13.50
2023-05-24T22:47:35.260Z,13.40
2023-05-24T22:50:02.571Z,13.40
2023-05-24T22:52:30.372Z,13.30
2023-05-24T22:54:57.101Z,13.10
2023-05-24T22:57:23.760Z,13.10
2023-05-24T22:59:50.654Z,13.00
2023-05-24T23:02:17.500Z,12.90
2023-05-24T23:04:46.146Z,12.90
2023-05-24T23:07:15.354Z,12.90
2023-05-24T23:09:43.173Z,12.80
2023-05-24T23:12:10.467Z,12.70
2023-05-24T23:14:38.964Z,12.60
2023-05-24T23:17:07.257Z,12.50
2023-05-24T23:19:34.166Z,12.50
2023-05-24T23:22:03.689Z,12.50
2023-05-24T23:24:31.251Z,12.50
2023-05-24T23:26:57.956Z,12.40
2023-05-24T23:29:24.635Z,12.40
2023-05-24T23:31:51.339Z,12.40
2023-05-24T23:34:18.034Z,12.40
2023-05-24T23:36:44.762Z,12.30
2023-05-24T23:39:12.566Z,12.30
2023-05-24T23:41:39.285Z,12.20
2023-05-24T23:44:06.069Z,12.20
2023-05-24T23:46:32.807Z,12.10
2023-05-24T23:49:00.401Z,12.20
2023-05-24T23:51:27.218Z,12.10
2023-05-24T23:53:53.846Z,12.10
2023-05-24T23:56:20.537Z,12.10
2023-05-24T23:58:48.007Z,12.10
